createdAt,value
2019-01-20T00:00:18.184Z,10.38
2019-01-20T00:02:46.799Z,10.00
2019-01-20T00:05:16.146Z,9.33
2019-01-20T00:07:44.780Z,9.78
2019-01-20T00:10:13.958Z,9.05
2019-01-20T00:12:42.559Z,9.60
2019-01-20T00:15:17.383Z,9.60
2019-01-20T00:17:46.059Z,9.00
2019-01-20T00:20:14.696Z,9.30
2019-01-20T00:22:43.388Z,9.90
2019-01-20T00:25:12.368Z,11.38
2019-01-20T00:27:41.014Z,9.73
2019-01-20T00:30:14.904Z,8.93
2019-01-20T00:32:43.470Z,10.30
2019-01-20T00:35:12.151Z,10.25
2019-01-20T00:37:40.725Z,8.95
2019-01-20T00:40:14.819Z,9.45
2019-01-20T00:42:43.495Z,9.30
2019-01-20T00:45:17.053Z,9.28
2019-01-20T00:47:45.654Z,8.40
2019-01-20T00:50:15.954Z,9.63
2019-01-20T00:52:44.638Z,10.63
2019-01-20T00:55:15.991Z,10.30
2019-01-20T00:57:45.003Z,8.60
2019-01-20T01:00:19.762Z,9.45
2019-01-20T01:02:48.579Z,9.23
2019-01-20T01:05:18.650Z,8.65
2019-01-20T01:07:47.346Z,8.28
2019-01-20T01:10:16.464Z,7.78
2019-01-20T01:12:45.779Z,8.50
2019-01-20T01:15:14.599Z,8.18
2019-01-20T01:17:43.135Z,7.67
2019-01-20T01:20:16.900Z,8.88
2019-01-20T01:22:45.592Z,7.55
2019-01-20T01:25:15.593Z,8.48
2019-01-20T01:27:44.674Z,7.15
2019-01-20T01:30:16.264Z,8.45
2019-01-20T01:32:44.939Z,8.45
2019-01-20T01:35:13.847Z,8.60
2019-01-20T01:37:42.469Z,8.80
2019-01-20T01:40:14.054Z,10.93
2019-01-20T01:42:42.976Z,8.25
2019-01-20T01:45:14.659Z,8.95
2019-01-20T01:47:43.350Z,8.95
2019-01-20T01:50:13.535Z,10.05
2019-01-20T01:52:42.375Z,8.28
2019-01-20T01:55:11.869Z,8.93
2019-01-20T01:57:40.495Z,8.70
2019-01-20T02:00:17.986Z,8.90
2019-01-20T02:02:46.691Z,9.38
2019-01-20T02:05:15.374Z,8.28
2019-01-20T02:07:44.146Z,9.40
2019-01-20T02:10:17.661Z,8.65
2019-01-20T02:12:46.339Z,8.28
2019-01-20T02:15:17.539Z,8.58
2019-01-20T02:17:46.328Z,8.15
2019-01-20T02:20:19.967Z,8.48
2019-01-20T02:22:48.678Z,8.10
2019-01-20T02:25:17.311Z,9.30
2019-01-20T02:27:45.865Z,10.45
2019-01-20T02:30:26.000Z,8.68
2019-01-20T02:32:54.671Z,7.50
2019-01-20T02:35:23.359Z,8.65
2019-01-20T02:37:51.993Z,8.35
2019-01-20T02:40:20.599Z,9.65
2019-01-20T02:42:49.175Z,9.28
2019-01-20T02:45:17.955Z,8.95
2019-01-20T02:47:46.592Z,8.78
2019-01-20T02:50:16.981Z,9.48
2019-01-20T02:52:45.769Z,10.28
2019-01-20T02:55:14.463Z,9.08
2019-01-20T02:57:43.343Z,9.10
2019-01-20T03:00:15.039Z,9.55
2019-01-20T03:02:43.656Z,9.55
2019-01-20T03:05:12.779Z,7.85
2019-01-20T03:07:41.366Z,6.80
2019-01-20T03:10:12.181Z,9.05
2019-01-20T03:12:40.809Z,7.58
2019-01-20T03:15:12.507Z,9.10
2019-01-20T03:17:41.125Z,7.15
2019-01-20T03:20:18.434Z,7.75
2019-01-20T03:22:47.051Z,8.65
2019-01-20T03:25:18.114Z,7.55
2019-01-20T03:27:46.826Z,7.40
2019-01-20T03:30:17.616Z,8.23
2019-01-20T03:32:46.447Z,7.37
2019-01-20T03:35:16.792Z,9.30
2019-01-20T03:37:45.489Z,6.72
2019-01-20T03:40:16.558Z,8.73
2019-01-20T03:42:45.202Z,7.67
2019-01-20T03:45:15.986Z,7.08
2019-01-20T03:47:44.791Z,7.05
2019-01-20T03:50:15.482Z,7.25
2019-01-20T03:52:44.172Z,8.43
2019-01-20T03:55:15.435Z,6.42
2019-01-20T03:57:44.048Z,8.63
2019-01-20T04:00:15.639Z,7.53
2019-01-20T04:02:45.176Z,8.03
2019-01-20T04:05:14.291Z,7.50
2019-01-20T04:07:42.901Z,6.42
2019-01-20T04:10:14.675Z,7.55
2019-01-20T04:12:43.381Z,6.37
2019-01-20T04:15:15.923Z,6.03
2019-01-20T04:17:44.606Z,7.50
2019-01-20T04:20:14.812Z,7.65
2019-01-20T04:22:43.354Z,5.83
2019-01-20T04:25:19.973Z,7.92
2019-01-20T04:27:48.580Z,7.50
2019-01-20T04:30:19.265Z,6.20
2019-01-20T04:32:48.264Z,6.03
2019-01-20T04:35:16.938Z,6.65
2019-01-20T04:37:45.538Z,6.83
2019-01-20T04:40:19.486Z,6.78
2019-01-20T04:42:48.154Z,7.05
2019-01-20T04:45:16.850Z,6.47
2019-01-20T04:47:45.561Z,6.62
2019-01-20T04:50:16.633Z,6.15
2019-01-20T04:52:45.315Z,6.37
2019-01-20T04:55:15.244Z,7.30
2019-01-20T04:57:45.558Z,5.15
2019-01-20T05:00:17.114Z,5.75
2019-01-20T05:02:45.670Z,5.17
2019-01-20T05:05:14.761Z,5.30
2019-01-20T05:07:43.453Z,6.33
2019-01-20T05:10:14.446Z,5.25
2019-01-20T05:12:43.004Z,6.67
2019-01-20T05:15:16.595Z,5.50
2019-01-20T05:17:45.223Z,5.25
2019-01-20T05:20:14.014Z,5.75
2019-01-20T05:22:42.634Z,5.37
2019-01-20T05:25:12.319Z,6.53
2019-01-20T05:27:40.922Z,5.72
2019-01-20T05:30:14.980Z,5.50
2019-01-20T05:32:43.518Z,5.50
2019-01-20T05:35:12.303Z,5.70
2019-01-20T05:37:41.001Z,5.67
2019-01-20T05:40:12.782Z,6.03
2019-01-20T05:42:45.995Z,5.85
2019-01-20T05:45:19.900Z,5.60
2019-01-20T05:47:48.448Z,5.40
2019-01-20T05:50:17.085Z,6.28
2019-01-20T05:52:45.704Z,6.30
2019-01-20T05:55:15.195Z,5.92
2019-01-20T05:57:44.073Z,6.03
2019-01-20T06:00:15.753Z,5.70
2019-01-20T06:02:44.358Z,7.37
2019-01-20T06:05:12.968Z,6.70
2019-01-20T06:07:41.667Z,6.53
2019-01-20T06:10:12.648Z,6.40
2019-01-20T06:12:41.213Z,5.80
2019-01-20T06:15:20.156Z,6.08
2019-01-20T06:17:48.790Z,7.10
2019-01-20T06:20:18.184Z,5.00
2019-01-20T06:22:46.856Z,5.78
2019-01-20T06:25:15.551Z,5.03
2019-01-20T06:27:44.177Z,5.00
2019-01-20T06:30:18.625Z,6.17
2019-01-20T06:32:47.259Z,5.70
2019-01-20T06:35:15.939Z,6.50
2019-01-20T06:37:44.531Z,5.87
2019-01-20T06:40:14.023Z,5.78
2019-01-20T06:42:42.622Z,5.12
2019-01-20T06:45:13.594Z,7.00
2019-01-20T06:47:42.376Z,5.72
2019-01-20T06:50:13.651Z,6.87
2019-01-20T06:52:42.262Z,6.20
2019-01-20T06:55:12.135Z,5.67
2019-01-20T06:57:41.140Z,6.42
2019-01-20T07:00:20.640Z,6.20
2019-01-20T07:02:49.262Z,5.15
2019-01-20T07:05:18.147Z,5.58
2019-01-20T07:07:46.899Z,6.17
2019-01-20T07:10:17.404Z,4.97
2019-01-20T07:12:45.943Z,5.33
2019-01-20T07:15:19.565Z,5.20
2019-01-20T07:17:48.269Z,5.17
2019-01-20T07:20:16.869Z,5.60
2019-01-20T07:22:45.475Z,5.40
2019-01-20T07:25:14.572Z,5.33
2019-01-20T07:27:43.187Z,5.55
2019-01-20T07:30:19.604Z,5.30
2019-01-20T07:32:48.683Z,6.33
2019-01-20T07:35:18.063Z,6.45
2019-01-20T07:37:46.768Z,5.20
2019-01-20T07:40:20.320Z,5.45
2019-01-20T07:42:48.936Z,6.25
2019-01-20T07:45:18.134Z,4.87
2019-01-20T07:47:46.668Z,5.53
2019-01-20T07:50:17.839Z,5.78
2019-01-20T07:52:46.543Z,5.53
2019-01-20T07:55:15.319Z,5.90
2019-01-20T07:57:43.992Z,6.00
2019-01-20T08:00:18.235Z,5.58
2019-01-20T08:02:46.947Z,6.05
2019-01-20T08:05:15.682Z,5.62
2019-01-20T08:07:44.319Z,6.42
2019-01-20T08:10:16.259Z,6.70
2019-01-20T08:12:44.963Z,6.33
2019-01-20T08:15:15.056Z,5.58
2019-01-20T08:17:43.679Z,5.25
2019-01-20T08:20:15.294Z,5.62
2019-01-20T08:22:43.923Z,6.30
2019-01-20T08:25:13.691Z,5.08
2019-01-20T08:27:42.338Z,6.15
2019-01-20T08:30:13.716Z,5.25
2019-01-20T08:32:42.291Z,6.37
2019-01-20T08:35:12.647Z,5.62
2019-01-20T08:37:41.451Z,6.80
2019-01-20T08:40:19.226Z,6.22
2019-01-20T08:42:47.704Z,6.87
2019-01-20T08:45:21.983Z,5.40
2019-01-20T08:47:52.642Z,5.85
2019-01-20T08:50:21.204Z,5.85
2019-01-20T08:52:49.731Z,6.30
2019-01-20T08:55:18.290Z,6.12
2019-01-20T08:57:46.838Z,6.17
2019-01-20T09:00:16.917Z,5.95
2019-01-20T09:02:45.915Z,6.83
2019-01-20T09:05:14.895Z,6.28
2019-01-20T09:07:43.527Z,6.75
2019-01-20T09:10:15.143Z,7.53
2019-01-20T09:12:43.768Z,6.30
2019-01-20T09:15:12.457Z,7.03
2019-01-20T09:17:40.983Z,5.58
2019-01-20T09:20:12.483Z,6.83
2019-01-20T09:22:41.099Z,6.12
2019-01-20T09:25:12.783Z,6.10
2019-01-20T09:27:41.470Z,5.35
2019-01-20T09:30:13.083Z,6.12
2019-01-20T09:32:41.629Z,6.12
2019-01-20T09:35:10.621Z,5.85
2019-01-20T09:37:39.164Z,6.47
2019-01-20T09:40:10.763Z,6.33
2019-01-20T09:42:39.392Z,6.47
2019-01-20T09:45:11.532Z,5.80
2019-01-20T09:47:40.847Z,5.28
2019-01-20T09:50:09.698Z,6.97
2019-01-20T09:52:38.255Z,5.80
2019-01-20T09:55:09.907Z,5.42
2019-01-20T09:57:38.604Z,5.35
2019-01-20T10:00:18.819Z,6.30
2019-01-20T10:02:48.314Z,6.97
2019-01-20T10:05:17.145Z,6.03
2019-01-20T10:07:45.723Z,4.97
2019-01-20T10:10:16.611Z,5.75
2019-01-20T10:12:45.295Z,4.83
2019-01-20T10:15:17.666Z,5.17
2019-01-20T10:17:46.372Z,4.72
2019-01-20T10:20:18.032Z,5.00
2019-01-20T10:22:46.640Z,6.22
2019-01-20T10:25:15.356Z,5.10
2019-01-20T10:27:44.027Z,5.62
2019-01-20T10:30:15.901Z,4.67
2019-01-20T10:32:47.996Z,5.30
2019-01-20T10:35:15.088Z,5.40
2019-01-20T10:37:43.892Z,5.10
2019-01-20T10:40:12.567Z,4.97
2019-01-20T10:42:41.195Z,4.53
2019-01-20T10:45:10.770Z,4.47
2019-01-20T10:47:39.403Z,4.70
2019-01-20T10:50:11.397Z,4.05
2019-01-20T10:52:40.018Z,4.00
2019-01-20T10:55:08.999Z,3.87
2019-01-20T10:57:37.608Z,3.60
2019-01-20T11:00:12.190Z,3.70
2019-01-20T11:02:40.800Z,4.30
2019-01-20T11:05:09.462Z,4.40
2019-01-20T11:07:38.029Z,5.45
2019-01-20T11:10:10.213Z,6.12
2019-01-20T11:12:38.812Z,4.37
2019-01-20T11:15:10.714Z,5.08
2019-01-20T11:17:39.251Z,3.80
2019-01-20T11:20:13.914Z,3.80
2019-01-20T11:22:42.516Z,4.25
2019-01-20T11:25:16.987Z,3.62
2019-01-20T11:27:45.528Z,3.90
2019-01-20T11:30:14.692Z,3.80
2019-01-20T11:32:43.371Z,3.50
2019-01-20T11:35:15.019Z,4.22
2019-01-20T11:37:43.727Z,3.80
2019-01-20T11:40:14.014Z,4.25
2019-01-20T11:42:42.934Z,3.60
2019-01-20T11:45:14.535Z,3.15
2019-01-20T11:47:43.164Z,3.90
2019-01-20T11:50:13.339Z,2.72
2019-01-20T11:52:41.873Z,3.50
2019-01-20T11:55:13.672Z,3.60
2019-01-20T11:57:42.211Z,3.20
2019-01-20T12:00:13.824Z,3.98
2019-01-20T12:02:42.447Z,4.08
2019-01-20T12:05:13.027Z,3.50
2019-01-20T12:07:41.697Z,3.50
2019-01-20T12:10:11.398Z,3.62
2019-01-20T12:12:40.680Z,4.72
2019-01-20T12:15:12.179Z,4.72
2019-01-20T12:17:40.847Z,4.78
2019-01-20T12:20:12.408Z,6.58
2019-01-20T12:22:41.153Z,4.83
2019-01-20T12:25:15.443Z,4.20
2019-01-20T12:27:44.119Z,5.00
2019-01-20T12:30:21.483Z,4.00
2019-01-20T12:32:50.159Z,4.10
2019-01-20T12:35:18.774Z,4.28
2019-01-20T12:37:47.394Z,3.80
2019-01-20T12:40:19.251Z,4.10
2019-01-20T12:42:47.861Z,7.50
2019-01-20T12:45:16.428Z,7.85
2019-01-20T12:47:44.946Z,4.22
2019-01-20T12:50:18.302Z,4.42
2019-01-20T12:52:46.928Z,4.25
2019-01-20T12:55:16.610Z,4.90
2019-01-20T12:57:45.626Z,4.83
2019-01-20T13:00:16.815Z,3.47
2019-01-20T13:02:45.799Z,4.47
2019-01-20T13:05:14.571Z,4.72
2019-01-20T13:07:43.207Z,5.05
2019-01-20T13:10:17.499Z,4.80
2019-01-20T13:12:46.268Z,4.30
2019-01-20T13:15:22.726Z,4.53
2019-01-20T13:17:51.323Z,4.75
2019-01-20T13:20:22.490Z,4.10
2019-01-20T13:22:51.122Z,4.28
2019-01-20T13:25:24.625Z,3.80
2019-01-20T13:27:53.324Z,3.35
2019-01-20T13:30:23.919Z,4.10
2019-01-20T13:32:52.608Z,4.15
2019-01-20T13:35:22.138Z,3.72
2019-01-20T13:37:53.778Z,3.30
2019-01-20T13:40:34.613Z,3.47
2019-01-20T13:43:03.251Z,3.20
2019-01-20T13:45:31.854Z,3.40
2019-01-20T13:48:00.481Z,4.03
2019-01-20T13:50:29.014Z,2.98
2019-01-20T13:52:57.639Z,3.30
2019-01-20T13:55:26.253Z,3.00
2019-01-20T13:57:54.843Z,3.20
2019-01-20T14:00:24.820Z,3.17
2019-01-20T14:02:53.515Z,25.08
2019-01-20T14:05:22.213Z,5.85
2019-01-20T14:07:51.016Z,13.80
2019-01-20T14:10:22.302Z,7.00
2019-01-20T14:12:50.829Z,3.90
2019-01-20T14:15:19.497Z,3.92
2019-01-20T14:17:48.192Z,4.33
2019-01-20T14:20:19.068Z,3.30
2019-01-20T14:22:48.163Z,4.10
2019-01-20T14:25:22.003Z,3.40
2019-01-20T14:27:50.676Z,3.30
2019-01-20T14:30:27.374Z,3.72
2019-01-20T14:32:56.047Z,3.30
2019-01-20T14:35:24.720Z,3.45
2019-01-20T14:37:53.342Z,3.50
2019-01-20T14:40:22.535Z,3.20
2019-01-20T14:42:52.823Z,3.35
2019-01-20T14:45:21.494Z,3.12
2019-01-20T14:47:50.023Z,4.45
2019-01-20T14:50:24.021Z,3.40
2019-01-20T14:52:52.689Z,3.60
2019-01-20T14:55:21.557Z,3.50
2019-01-20T14:57:50.282Z,3.75
2019-01-20T15:00:28.070Z,4.08
2019-01-20T15:02:56.763Z,3.35
2019-01-20T15:05:25.531Z,3.40
2019-01-20T15:07:54.207Z,3.33
2019-01-20T15:10:22.830Z,3.12
2019-01-20T15:12:51.505Z,3.35
2019-01-20T15:15:29.022Z,4.20
2019-01-20T15:17:57.625Z,4.00
2019-01-20T15:20:26.299Z,4.55
2019-01-20T15:22:54.931Z,3.87
2019-01-20T15:25:23.615Z,3.75
2019-01-20T15:27:52.221Z,3.85
2019-01-20T15:30:23.685Z,3.65
2019-01-20T15:32:52.676Z,3.80
2019-01-20T15:35:22.101Z,3.08
2019-01-20T15:37:50.938Z,3.75
2019-01-20T15:40:22.518Z,3.55
2019-01-20T15:42:51.043Z,3.80
2019-01-20T15:45:21.858Z,3.52
2019-01-20T15:47:52.658Z,3.60
2019-01-20T15:50:26.983Z,4.20
2019-01-20T15:52:55.661Z,6.20
2019-01-20T15:55:24.535Z,5.40
2019-01-20T15:57:53.236Z,4.08
2019-01-20T16:00:24.056Z,3.70
2019-01-20T16:02:52.672Z,3.98
2019-01-20T16:05:21.671Z,6.28
2019-01-20T16:07:50.292Z,8.28
2019-01-20T16:10:18.894Z,8.88
2019-01-20T16:12:47.890Z,9.48
2019-01-20T16:15:24.375Z,9.95
2019-01-20T16:17:50.604Z,11.28
2019-01-20T16:20:19.609Z,11.80
2019-01-20T16:22:49.758Z,15.35
2019-01-20T16:25:30.006Z,17.35
2019-01-20T16:27:58.692Z,13.53
2019-01-20T16:30:32.846Z,13.65
2019-01-20T16:33:01.541Z,12.63
2019-01-20T16:35:30.229Z,12.88
2019-01-20T16:37:59.611Z,12.20
2019-01-20T16:40:28.733Z,10.13
2019-01-20T16:42:57.335Z,9.20
2019-01-20T16:45:41.596Z,8.53
2019-01-20T16:48:05.935Z,7.58
2019-01-20T16:50:34.540Z,7.53
2019-01-20T16:53:03.336Z,8.80
2019-01-20T16:55:32.017Z,8.95
2019-01-20T16:58:00.610Z,9.38
2019-01-20T17:00:34.967Z,10.05
2019-01-20T17:03:03.574Z,10.60
2019-01-20T17:05:32.247Z,9.28
2019-01-20T17:08:00.890Z,9.80
2019-01-20T17:10:34.731Z,10.20
2019-01-20T17:13:03.414Z,10.32
2019-01-20T17:15:39.398Z,9.15
2019-01-20T17:18:06.885Z,10.32
2019-01-20T17:20:35.668Z,8.60
2019-01-20T17:23:04.664Z,9.15
2019-01-20T17:25:33.197Z,9.48
2019-01-20T17:28:01.738Z,10.05
2019-01-20T17:30:35.250Z,8.90
2019-01-20T17:33:05.149Z,10.85
2019-01-20T17:35:33.754Z,8.60
2019-01-20T17:38:02.394Z,9.68
2019-01-20T17:40:31.003Z,9.23
2019-01-20T17:42:59.542Z,9.68
2019-01-20T17:45:33.987Z,9.05
2019-01-20T17:48:02.781Z,9.40
2019-01-20T17:50:33.949Z,8.15
2019-01-20T17:53:02.752Z,7.70
2019-01-20T17:55:31.351Z,8.15
2019-01-20T17:57:59.890Z,7.80
2019-01-20T18:00:32.740Z,7.90
2019-01-20T18:03:04.945Z,8.85
2019-01-20T18:05:33.725Z,7.80
2019-01-20T18:08:02.348Z,8.28
2019-01-20T18:10:31.023Z,9.93
2019-01-20T18:12:59.699Z,6.85
2019-01-20T18:15:28.673Z,8.48
2019-01-20T18:17:58.699Z,7.40
2019-01-20T18:20:30.359Z,6.78
2019-01-20T18:22:59.274Z,7.65
2019-01-20T18:25:27.883Z,7.95
2019-01-20T18:27:56.859Z,7.28
2019-01-20T18:30:28.172Z,7.15
2019-01-20T18:32:56.865Z,8.00
2019-01-20T18:35:26.866Z,6.60
2019-01-20T18:37:55.480Z,7.55
2019-01-20T18:40:26.009Z,5.53
2019-01-20T18:42:54.716Z,6.37
2019-01-20T18:45:26.213Z,5.80
2019-01-20T18:47:54.881Z,7.05
2019-01-20T18:50:28.506Z,7.42
2019-01-20T18:52:57.150Z,8.03
2019-01-20T18:55:25.862Z,6.50
2019-01-20T18:57:54.464Z,6.40
2019-01-20T19:00:31.530Z,6.50
2019-01-20T19:03:00.396Z,6.72
2019-01-20T19:05:30.581Z,6.85
2019-01-20T19:07:59.344Z,7.95
2019-01-20T19:10:28.281Z,9.90
2019-01-20T19:12:56.991Z,9.45
2019-01-20T19:15:25.607Z,10.23
2019-01-20T19:17:54.216Z,9.18
2019-01-20T19:20:26.755Z,11.03
2019-01-20T19:22:56.982Z,11.15
2019-01-20T19:25:25.651Z,10.70
2019-01-20T19:27:54.191Z,10.95
2019-01-20T19:30:34.239Z,9.73
2019-01-20T19:33:02.930Z,10.90
2019-01-20T19:35:31.543Z,9.15
2019-01-20T19:38:00.256Z,11.33
2019-01-20T19:40:28.803Z,9.55
2019-01-20T19:42:57.507Z,10.60
2019-01-20T19:45:26.190Z,12.60
2019-01-20T19:47:54.890Z,11.83
2019-01-20T19:50:23.587Z,13.70
2019-01-20T19:52:52.127Z,14.00
2019-01-20T19:55:26.377Z,17.57
2019-01-20T19:57:55.061Z,19.87
2019-01-20T20:00:25.939Z,16.90
2019-01-20T20:02:54.759Z,16.02
2019-01-20T20:05:23.443Z,15.90
2019-01-20T20:07:53.122Z,14.35
2019-01-20T20:10:23.984Z,20.62
2019-01-20T20:12:53.016Z,23.35
2019-01-20T20:15:24.173Z,20.57
2019-01-20T20:17:52.871Z,19.55
2019-01-20T20:20:22.047Z,20.30
2019-01-20T20:22:50.739Z,20.43
2019-01-20T20:25:24.035Z,20.30
2019-01-20T20:27:53.319Z,20.05
2019-01-20T20:30:27.155Z,20.05
2019-01-20T20:32:55.718Z,19.95
2019-01-20T20:35:24.406Z,18.10
2019-01-20T20:37:53.037Z,17.82
2019-01-20T20:40:21.715Z,16.15
2019-01-20T20:42:50.404Z,15.75
2019-01-20T20:45:21.598Z,15.18
2019-01-20T20:47:50.207Z,16.00
2019-01-20T20:50:19.297Z,16.90
2019-01-20T20:52:47.990Z,15.75
2019-01-20T20:55:16.676Z,16.62
2019-01-20T20:57:45.283Z,16.02
2019-01-20T21:00:25.568Z,15.98
2019-01-20T21:02:54.255Z,16.17
2019-01-20T21:05:22.938Z,16.02
2019-01-20T21:07:51.646Z,17.27
2019-01-20T21:10:20.332Z,16.32
2019-01-20T21:12:48.943Z,15.70
2019-01-20T21:15:17.652Z,16.30
2019-01-20T21:17:48.409Z,16.35
2019-01-20T21:20:21.630Z,15.50
2019-01-20T21:22:50.347Z,17.65
2019-01-20T21:25:19.077Z,15.65
2019-01-20T21:27:47.799Z,15.72
2019-01-20T21:30:18.985Z,17.80
2019-01-20T21:32:47.519Z,17.02
2019-01-20T21:35:16.795Z,14.98
2019-01-20T21:37:45.442Z,14.55
2019-01-20T21:40:16.313Z,14.20
2019-01-20T21:42:44.860Z,12.85
2019-01-20T21:45:15.663Z,13.35
2019-01-20T21:47:44.438Z,12.43
2019-01-20T21:50:27.739Z,12.85
2019-01-20T21:52:56.341Z,12.03
2019-01-20T21:55:25.056Z,12.53
2019-01-20T21:57:53.665Z,13.85
2019-01-20T22:00:24.841Z,12.45
2019-01-20T22:02:53.530Z,12.47
2019-01-20T22:05:22.157Z,12.82
2019-01-20T22:07:50.762Z,15.30
2019-01-20T22:10:21.283Z,16.17
2019-01-20T22:12:49.810Z,16.23
2019-01-20T22:15:18.994Z,15.60
2019-01-20T22:17:48.610Z,15.58
2019-01-20T22:20:21.827Z,15.20
2019-01-20T22:22:51.309Z,14.90
2019-01-20T22:25:19.952Z,14.68
2019-01-20T22:27:48.627Z,15.68
2019-01-20T22:30:22.369Z,16.97
2019-01-20T22:32:50.928Z,15.60
2019-01-20T22:35:19.612Z,15.05
2019-01-20T22:37:48.220Z,17.52
2019-01-20T22:40:18.434Z,16.17
2019-01-20T22:42:47.114Z,17.48
2019-01-20T22:45:18.366Z,18.50
2019-01-20T22:47:46.932Z,16.30
2019-01-20T22:50:15.834Z,17.50
2019-01-20T22:52:44.417Z,17.40
2019-01-20T22:55:15.127Z,15.72
2019-01-20T22:57:43.807Z,17.67
2019-01-20T23:00:24.441Z,15.50
2019-01-20T23:02:53.124Z,17.67
2019-01-20T23:05:21.686Z,17.77
2019-01-20T23:07:50.375Z,16.05
2019-01-20T23:10:19.059Z,15.43
2019-01-20T23:12:47.627Z,16.42
2019-01-20T23:15:16.240Z,16.30
2019-01-20T23:17:44.919Z,16.25
2019-01-20T23:20:18.077Z,16.42
2019-01-20T23:22:46.755Z,18.05
2019-01-20T23:25:15.430Z,16.75
2019-01-20T23:27:44.151Z,16.37
2019-01-20T23:30:14.926Z,17.20
2019-01-20T23:32:43.390Z,15.63
2019-01-20T23:35:12.103Z,16.67
2019-01-20T23:37:40.734Z,16.57
2019-01-20T23:40:14.294Z,16.50
2019-01-20T23:42:42.978Z,15.25
2019-01-20T23:45:12.663Z,15.58
2019-01-20T23:47:41.266Z,15.85
2019-01-20T23:50:14.442Z,15.90
2019-01-20T23:52:43.201Z,15.32
2019-01-20T23:55:12.742Z,14.23
2019-01-20T23:57:41.348Z,16.55
